Parq de Candelero, Puerto Rico
Current Conditions -  °F | °C
As of 5:53 PM on Sunday 21 Dec 2014 (Local Time) from TJNR Reporting Station
Clear Clear  
Wind Chill: 78°   Ceiling: Unl
Heat Index: 80°   Visibility: 10mi
Dew Point: 66°   Wind: 8mph
Humidity: 66%   Direction: 60°ENE
Pressure: 30.05"   Gusts: NA
Location:  18.1494°N, 65.8294°W
Report Text: TJNR 212153Z AUTO 06007KT 10SM CLR 26/19 A3005 RMK AO2 SLP175 T02560189 $
Loading
Personal Weather Stations






























Interactive Weather Map New forecast layout! Learn more

10-Day Weather Forecast

Advertisements
Track Severe Weather on mobile